Time;durP1;ratioP1;P1;durP2;ratioP2;P2;SDS_P1;SDS_P2;PMS_P1;PMS_P2;Temp;Humidity;BMP_temperature;BMP_pressure;BME280_temperature;BME280_humidity;BME280_pressure;Samples;Min_cycle;Max_cycle;Signal;HPM_P1;HPM_P2
2021/12/02 00:01:11;;;;;;;9.33;4.35;;;;;;;0.42;55.97;99470.66;1776483;78;21070;-64
2021/12/02 00:03:39;;;;;;;9.55;4.65;;;;;;;0.48;55.79;99466.47;1751109;79;21219;-65
2021/12/02 00:06:11;;;;;;;8.60;4.08;;;;;;;0.50;55.70;99458.98;1800290;77;21054;-65
2021/12/02 00:08:38;;;;;;;8.05;4.05;;;;;;;0.53;55.65;99448.47;1775038;78;21035;-66
2021/12/02 00:11:04;;;;;;;8.70;4.10;;;;;;;0.56;55.44;99448.78;1770265;79;21601;-63
2021/12/02 00:13:39;;;;;;;8.23;3.77;;;;;;;0.57;55.40;99444.42;1798852;78;21058;-65
2021/12/02 00:16:53;;;;;;;8.88;4.85;;;;;;;0.59;55.36;99438.27;1775842;78;21098;-62
2021/12/02 00:21:02;;;;;;;10.80;4.83;;;;;;;0.62;55.42;99432.06;1748214;78;21789;-64
2021/12/02 00:21:09;;;;;;;10.60;5.00;;;;;;;0.65;55.35;99439.20;1743151;79;21559;-64
2021/12/02 00:24:03;;;;;;;9.68;5.05;;;;;;;0.67;55.21;99427.47;1805308;78;21070;-63
2021/12/02 00:26:31;;;;;;;8.58;4.35;;;;;;;0.68;55.18;99418.33;1772130;78;21475;-62
2021/12/02 00:29:00;;;;;;;9.68;3.77;;;;;;;0.68;55.00;99429.98;1751154;79;21062;-65
2021/12/02 00:31:31;;;;;;;9.13;3.87;;;;;;;0.68;55.04;99423.98;1749930;78;21071;-63
2021/12/02 00:34:00;;;;;;;6.70;3.15;;;;;;;0.73;54.94;99429.73;1778826;79;21048;-63
2021/12/02 00:36:28;;;;;;;7.42;3.30;;;;;;;0.78;54.85;99432.91;1777801;78;21148;-64
2021/12/02 00:38:55;;;;;;;6.62;3.10;;;;;;;0.83;54.55;99427.02;1776675;77;21038;-63
2021/12/02 00:41:25;;;;;;;8.93;3.80;;;;;;;0.88;54.12;99425.47;1778598;78;22931;-63
2021/12/02 00:43:54;;;;;;;11.85;3.85;;;;;;;0.88;53.97;99419.83;1779735;79;21094;-64
2021/12/02 00:46:22;;;;;;;8.60;3.90;;;;;;;0.93;53.86;99407.92;1777455;78;21015;-65
2021/12/02 00:48:49;;;;;;;8.80;3.67;;;;;;;0.97;53.76;99405.98;1775075;79;21047;-64
2021/12/02 00:51:17;;;;;;;8.48;3.40;;;;;;;1.00;53.47;99414.42;1774785;78;21680;-64
2021/12/02 00:53:45;;;;;;;7.53;3.47;;;;;;;1.02;53.16;99415.63;1804912;77;21398;-61
2021/12/02 00:56:15;;;;;;;8.28;3.00;;;;;;;1.05;53.18;99411.58;1778407;78;20995;-63
2021/12/02 00:58:43;;;;;;;7.17;3.50;;;;;;;1.05;52.92;99403.81;1776498;78;21116;-63
2021/12/02 01:01:10;;;;;;;8.70;3.77;;;;;;;1.06;52.83;99398.98;1760058;78;21148;-64
2021/12/02 01:03:37;;;;;;;7.42;3.30;;;;;;;1.09;52.66;99396.22;1780634;79;21087;-65
2021/12/02 01:06:06;;;;;;;6.33;2.52;;;;;;;1.12;52.48;99383.09;1777508;78;21064;-64
2021/12/02 01:08:34;;;;;;;6.33;2.77;;;;;;;1.13;52.36;99369.67;1777452;79;21121;-63
2021/12/02 01:11:01;;;;;;;6.55;2.60;;;;;;;1.18;52.45;99368.51;1774486;78;21093;-64
2021/12/02 01:13:27;;;;;;;7.37;2.20;;;;;;;1.18;52.59;99364.62;1749961;80;21592;-63
2021/12/02 01:15:53;;;;;;;5.25;2.33;;;;;;;1.21;52.71;99357.97;1804842;78;21100;-65
2021/12/02 01:18:20;;;;;;;6.10;2.37;;;;;;;1.22;52.93;99353.61;1785717;78;21227;-64
2021/12/02 01:20:48;;;;;;;6.03;2.90;;;;;;;1.26;53.02;99353.35;1782160;78;21050;-63
2021/12/02 01:23:16;;;;;;;4.67;2.33;;;;;;;1.29;53.15;99347.14;1780764;78;21105;-63
2021/12/02 01:25:49;;;;;;;6.10;2.67;;;;;;;1.34;53.28;99337.81;1752298;78;21064;-64
2021/12/02 01:28:16;;;;;;;8.30;3.20;;;;;;;1.34;53.45;99333.45;1770162;78;21120;-64
2021/12/02 01:30:42;;;;;;;8.33;2.83;;;;;;;1.39;53.53;99324.94;1757594;78;22124;-63
2021/12/02 01:33:09;;;;;;;7.78;3.30;;;;;;;1.41;53.61;99326.15;1756749;79;21108;-62
2021/12/02 01:35:36;;;;;;;6.85;2.75;;;;;;;1.44;53.74;99325.50;1800893;77;21476;-64
2021/12/02 01:38:02;;;;;;;6.42;3.27;;;;;;;1.45;53.86;99318.11;1745916;80;21105;-64
2021/12/02 01:40:29;;;;;;;7.25;3.02;;;;;;;1.50;53.96;99307.47;1804856;78;21102;-62
2021/12/02 01:42:57;;;;;;;7.28;3.45;;;;;;;1.51;54.12;99303.94;1775067;78;21069;-62
2021/12/02 01:45:26;;;;;;;6.30;2.95;;;;;;;1.50;54.30;99317.84;1776075;78;21085;-63
2021/12/02 01:47:54;;;;;;;8.00;3.35;;;;;;;1.48;54.57;99318.40;1783285;78;21053;-64
2021/12/02 01:50:22;;;;;;;7.67;3.47;;;;;;;1.49;54.76;99326.53;1776697;78;21074;-63
2021/12/02 01:52:58;;;;;;;6.67;3.20;;;;;;;1.47;55.03;99319.31;1756837;78;21077;-62
2021/12/02 01:55:26;;;;;;;8.45;3.95;;;;;;;1.49;55.25;99314.39;1771993;78;21086;-64
2021/12/02 01:58:01;;;;;;;7.25;4.00;;;;;;;1.49;55.36;99319.58;1760033;79;21535;-66
2021/12/02 02:00:47;;;;;;;7.03;3.67;;;;;;;1.52;55.52;99300.42;1728041;80;21069;-65
2021/12/02 02:03:14;;;;;;;8.88;3.90;;;;;;;1.58;55.73;99306.99;1753932;80;21087;-66
2021/12/02 02:05:41;;;;;;;6.60;4.03;;;;;;;1.64;55.68;99304.86;1754613;81;21639;-65
2021/12/02 02:08:17;;;;;;;8.50;4.83;;;;;;;1.66;55.69;99299.59;1749036;80;21738;-62
2021/12/02 02:10:43;;;;;;;7.00;3.40;;;;;;;1.69;55.67;99290.33;1752548;80;21014;-64
2021/12/02 02:13:11;;;;;;;9.53;3.92;;;;;;;1.67;55.80;99293.02;1782686;80;21065;-63
2021/12/02 02:15:38;;;;;;;7.22;3.25;;;;;;;1.71;55.79;99288.95;1732069;81;21098;-63
2021/12/02 02:18:13;;;;;;;8.18;3.75;;;;;;;1.70;55.82;99297.64;1754311;80;21733;-63
2021/12/02 02:20:42;;;;;;;7.30;3.77;;;;;;;1.70;55.79;99297.64;1778210;78;22174;-66
2021/12/02 02:23:11;;;;;;;9.65;4.67;;;;;;;1.67;55.95;99302.09;1737414;80;21106;-64
2021/12/02 02:25:37;;;;;;;6.92;3.37;;;;;;;1.69;56.00;99293.39;1745572;81;21549;-64
2021/12/02 02:28:04;;;;;;;7.90;3.55;;;;;;;1.67;56.12;99291.72;1744529;80;21112;-65
2021/12/02 02:30:30;;;;;;;8.55;3.87;;;;;;;1.70;56.13;99288.12;1741854;80;21569;-67
2021/12/02 02:32:57;;;;;;;10.10;4.35;;;;;;;1.71;56.37;99292.36;1765624;79;21080;-67
2021/12/02 02:35:23;;;;;;;8.25;4.10;;;;;;;1.81;56.36;99295.23;1762490;79;21043;-65
2021/12/02 02:37:49;;;;;;;8.25;3.98;;;;;;;1.88;56.16;99298.28;1766470;80;21018;-66
2021/12/02 02:40:16;;;;;;;7.53;3.83;;;;;;;1.89;55.93;99291.70;1733444;80;21114;-65
2021/12/02 02:42:56;;;;;;;8.45;4.10;;;;;;;1.89;55.95;99291.70;1729342;81;21082;-64
2021/12/02 02:45:16;;;;;;;9.53;4.10;;;;;;;1.89;55.89;99281.80;1772959;78;21766;-67
2021/12/02 02:47:42;;;;;;;8.38;3.65;;;;;;;1.89;56.00;99284.39;1755914;81;21039;-65
2021/12/02 02:50:13;;;;;;;8.23;3.92;;;;;;;1.91;55.96;99283.36;1727502;81;21034;-66
2021/12/02 02:52:40;;;;;;;8.33;4.10;;;;;;;1.90;56.06;99273.93;1743329;80;22438;-64
2021/12/02 02:55:07;;;;;;;9.00;4.08;;;;;;;1.95;55.91;99274.92;1778428;78;21085;-65
2021/12/02 02:58:26;;;;;;;8.80;3.67;;;;;;;1.97;55.91;99274.38;1806222;77;22133;-65
2021/12/02 03:00:12;;;;;;;7.47;3.47;;;;;;;1.99;55.73;99280.30;1784749;78;21113;-64
2021/12/02 03:05:36;;;;;;;9.23;4.28;;;;;;;1.95;55.62;99278.37;1781820;78;21058;-65
2021/12/02 03:10:44;;;;;;;7.70;3.70;;;;;;;1.94;55.75;99276.69;1869699;75;22619;-65
2021/12/02 03:13:20;;;;;;;8.93;4.72;;;;;;;1.82;55.98;99269.20;1842449;76;21081;-63
2021/12/02 03:18:29;;;;;;;9.88;4.30;;;;;;;1.92;55.95;99264.76;1837340;76;21096;-67
2021/12/02 03:20:56;;;;;;;8.18;4.03;;;;;;;1.93;55.84;99259.45;1846162;76;20956;-64
2021/12/02 03:23:23;;;;;;;7.97;4.33;;;;;;;1.93;55.94;99251.66;1846457;76;21010;-66
2021/12/02 03:25:50;;;;;;;7.70;4.05;;;;;;;1.96;55.86;99251.95;1814915;76;21046;-65
2021/12/02 03:28:17;;;;;;;9.60;4.75;;;;;;;1.95;55.90;99251.56;1847957;76;21093;-66
2021/12/02 03:30:43;;;;;;;9.43;4.42;;;;;;;1.97;55.84;99250.56;1785022;78;21064;-67
2021/12/02 03:33:10;;;;;;;7.53;4.25;;;;;;;1.95;55.97;99251.56;1809318;77;21022;-66
2021/12/02 03:35:36;;;;;;;7.97;4.53;;;;;;;1.95;56.11;99245.08;1787812;78;21082;-65
2021/12/02 03:38:03;;;;;;;8.00;3.98;;;;;;;1.97;56.26;99234.17;1811200;77;21006;-65
2021/12/02 03:40:31;;;;;;;8.10;4.45;;;;;;;1.99;56.18;99241.38;1811194;77;21216;-65
2021/12/02 03:42:57;;;;;;;8.65;4.28;;;;;;;2.00;56.34;99232.66;1754510;78;21034;-63
2021/12/02 03:45:24;;;;;;;8.28;4.28;;;;;;;2.02;56.33;99223.03;1754907;79;21109;-63
2021/12/02 03:47:50;;;;;;;8.03;4.90;;;;;;;2.03;56.36;99218.20;1780978;79;21121;-62
2021/12/02 03:50:16;;;;;;;8.70;5.03;;;;;;;2.03;56.37;99225.53;1786336;77;21627;-64
2021/12/02 03:52:43;;;;;;;9.13;4.00;;;;;;;2.05;56.53;99218.92;1785443;78;21123;-62
2021/12/02 03:55:10;;;;;;;7.50;4.33;;;;;;;2.09;56.49;99205.31;1787140;79;21003;-61
2021/12/02 03:57:37;;;;;;;8.43;4.53;;;;;;;2.09;56.53;99212.62;1769933;78;21051;-63
2021/12/02 04:00:05;;;;;;;8.60;4.10;;;;;;;2.10;56.57;99204.37;1791698;78;21608;-64
2021/12/02 04:02:33;;;;;;;8.15;4.40;;;;;;;2.12;56.59;99201.20;1755499;78;21113;-64
2021/12/02 04:05:00;;;;;;;8.65;4.12;;;;;;;2.13;56.58;99195.91;1785183;78;21210;-62
2021/12/02 04:07:26;;;;;;;8.10;4.40;;;;;;;2.14;56.56;99195.47;1811118;78;21491;-66
2021/12/02 04:09:54;;;;;;;8.85;4.67;;;;;;;2.12;56.68;99186.92;1787787;78;21019;-63
2021/12/02 04:12:33;;;;;;;10.40;5.22;;;;;;;2.15;56.63;99176.36;1790433;78;21334;-61
2021/12/02 04:15:03;;;;;;;9.10;5.05;;;;;;;2.13;56.72;99176.92;1786856;79;21065;-64
2021/12/02 04:17:45;;;;;;;8.28;5.12;;;;;;;2.16;56.74;99171.55;1771548;79;21052;-65
2021/12/02 04:20:16;;;;;;;9.73;4.72;;;;;;;2.14;56.69;99170.81;1784305;79;21039;-67
2021/12/02 04:22:43;;;;;;;9.03;5.15;;;;;;;2.11;56.87;99180.09;1786393;79;21407;-67
2021/12/02 04:25:10;;;;;;;9.23;4.95;;;;;;;2.09;56.99;99180.19;1768648;79;21140;-64
2021/12/02 04:27:37;;;;;;;8.38;4.40;;;;;;;2.13;57.02;99174.33;1782808;79;21053;-67
2021/12/02 04:30:06;;;;;;;10.30;5.47;;;;;;;2.14;57.03;99166.92;1784755;79;21719;-65
2021/12/02 04:32:33;;;;;;;9.50;4.62;;;;;;;2.17;56.99;99177.08;1802585;77;21049;-67
2021/12/02 04:34:59;;;;;;;13.38;5.95;;;;;;;2.17;57.16;99169.30;1769079;79;21106;-61
2021/12/02 04:37:25;;;;;;;10.78;4.83;;;;;;;2.17;57.09;99159.77;1783568;79;21012;-65
2021/12/02 04:39:52;;;;;;;11.05;5.97;;;;;;;2.18;57.07;99163.19;1779177;79;21141;-62
2021/12/02 04:42:18;;;;;;;10.10;5.62;;;;;;;2.18;57.14;99172.27;1784053;78;23303;-64
2021/12/02 04:44:46;;;;;;;10.85;5.22;;;;;;;2.15;57.19;99160.78;1778179;79;21446;-68
2021/12/02 04:47:12;;;;;;;10.88;5.20;;;;;;;2.16;57.17;99148.19;1812126;77;21114;-67
2021/12/02 04:49:41;;;;;;;11.30;6.58;;;;;;;2.17;57.33;99144.64;1782088;79;21085;-62
2021/12/02 04:52:08;;;;;;;9.55;5.60;;;;;;;2.20;57.22;99137.95;1811567;77;21104;-64
2021/12/02 04:54:34;;;;;;;10.95;6.28;;;;;;;2.22;57.22;99143.91;1815635;77;21117;-64
2021/12/02 04:57:00;;;;;;;11.22;6.47;;;;;;;2.22;57.29;99152.52;1791184;78;21046;-62
2021/12/02 04:59:27;;;;;;;9.13;5.37;;;;;;;2.25;57.31;99153.23;1802111;79;21071;-68
2021/12/02 05:01:53;;;;;;;11.10;5.67;;;;;;;2.28;57.29;99162.95;1799612;77;21447;-67
2021/12/02 05:04:19;;;;;;;11.57;6.25;;;;;;;2.31;57.22;99156.74;1789093;78;21136;-62
2021/12/02 05:06:46;;;;;;;10.98;6.70;;;;;;;2.32;57.34;99153.19;1801841;77;22491;-65
2021/12/02 05:09:13;;;;;;;14.63;7.30;;;;;;;2.35;57.22;99153.81;1804308;77;21061;-65
2021/12/02 05:11:39;;;;;;;12.68;7.42;;;;;;;2.35;57.20;99144.73;1774669;79;21007;-69
2021/12/02 05:14:08;;;;;;;11.22;5.78;;;;;;;2.36;57.32;99132.61;1805357;77;21125;-69
2021/12/02 05:16:37;;;;;;;11.10;6.42;;;;;;;2.37;57.45;99135.55;1805702;77;21089;-68
2021/12/02 05:19:04;;;;;;;10.55;5.35;;;;;;;2.38;57.44;99128.95;1777689;78;21131;-62
2021/12/02 05:21:30;;;;;;;10.93;5.65;;;;;;;2.38;57.40;99126.36;1774072;79;21070;-66
2021/12/02 05:23:56;;;;;;;10.82;6.15;;;;;;;2.41;57.55;99127.94;1774971;79;21312;-63
2021/12/02 05:26:24;;;;;;;12.07;7.00;;;;;;;2.45;57.50;99128.56;1785713;78;21654;-69
2021/12/02 05:28:53;;;;;;;11.95;6.05;;;;;;;2.49;57.42;99127.41;1812358;77;21125;-65
2021/12/02 05:31:20;;;;;;;12.18;6.85;;;;;;;2.52;57.37;99112.48;1779180;78;21074;-64
2021/12/02 05:33:48;;;;;;;10.93;6.40;;;;;;;2.54;57.36;99118.84;1782544;79;21064;-65
2021/12/02 05:36:14;;;;;;;11.38;5.50;;;;;;;2.56;57.40;99117.00;1782224;78;21388;-68
2021/12/02 05:38:41;;;;;;;11.22;6.62;;;;;;;2.57;57.43;99123.39;1804099;77;21109;-67
2021/12/02 05:41:08;;;;;;;11.08;5.92;;;;;;;2.62;57.36;99132.16;1783157;79;21041;-65
2021/12/02 05:43:34;;;;;;;13.80;6.47;;;;;;;2.60;57.45;99121.04;1782440;78;21555;-64
2021/12/02 05:46:01;;;;;;;12.68;5.83;;;;;;;2.61;57.47;99118.82;1778042;78;21145;-63
2021/12/02 05:48:27;;;;;;;14.85;7.20;;;;;;;2.64;57.49;99124.26;1776981;79;21045;-65
2021/12/02 05:50:54;;;;;;;12.25;6.85;;;;;;;2.60;57.48;99127.05;1771740;79;21058;-62
2021/12/02 05:53:20;;;;;;;12.05;6.25;;;;;;;2.63;57.58;99131.23;1779960;78;21066;-66
2021/12/02 05:55:47;;;;;;;12.88;5.95;;;;;;;2.63;57.50;99145.98;1767743;79;21123;-63
2021/12/02 05:58:14;;;;;;;13.32;6.20;;;;;;;2.61;57.62;99144.79;1773403;78;21054;-62
2021/12/02 06:00:41;;;;;;;11.75;6.50;;;;;;;2.60;57.71;99136.15;1778414;79;21124;-61
2021/12/02 06:03:07;;;;;;;12.07;6.45;;;;;;;2.64;57.71;99135.50;1775319;78;21118;-64
2021/12/02 06:05:34;;;;;;;13.55;7.40;;;;;;;2.66;57.75;99136.70;1772755;79;21063;-62
2021/12/02 06:08:03;;;;;;;11.85;6.35;;;;;;;2.67;57.68;99141.77;1778578;79;21064;-64
2021/12/02 06:10:29;;;;;;;16.17;6.65;;;;;;;2.72;57.70;99141.02;1779740;79;21544;-65
2021/12/02 06:12:57;;;;;;;9.48;6.25;;;;;;;2.72;57.81;99136.27;1783846;79;20991;-64
2021/12/02 06:15:23;;;;;;;12.43;5.58;;;;;;;2.77;57.78;99131.59;1769032;79;21113;-68
2021/12/02 06:17:49;;;;;;;12.05;6.55;;;;;;;2.79;57.78;99129.71;1747271;79;21156;-66
2021/12/02 06:20:19;;;;;;;10.43;6.03;;;;;;;2.83;57.75;99135.08;1769016;79;23312;-67
2021/12/02 06:22:46;;;;;;;12.43;7.28;;;;;;;2.85;57.72;99129.78;1777652;79;21102;-64
2021/12/02 06:27:47;;;;;;;13.32;6.85;;;;;;;2.88;57.78;99122.61;1773115;79;21388;-62
2021/12/02 06:30:15;;;;;;;11.70;6.65;;;;;;;2.90;57.75;99132.42;1800350;77;21077;-63
2021/12/02 06:32:41;;;;;;;11.88;6.33;;;;;;;2.93;57.76;99125.72;1807558;77;21124;-66
2021/12/02 06:35:09;;;;;;;13.48;7.53;;;;;;;2.96;57.79;99132.48;1778196;78;21034;-62
2021/12/02 06:37:35;;;;;;;11.90;7.20;;;;;;;2.97;57.81;99130.23;1767195;78;21100;-65
2021/12/02 06:40:04;;;;;;;10.90;6.72;;;;;;;3.02;57.85;99135.13;1762996;78;21595;-65
2021/12/02 06:42:30;;;;;;;12.23;7.47;;;;;;;3.04;57.81;99125.45;1758705;79;21124;-67
2021/12/02 06:44:57;;;;;;;15.15;6.70;;;;;;;3.07;57.80;99130.44;1759344;79;22385;-61
2021/12/02 06:47:35;;;;;;;10.93;6.78;;;;;;;3.09;57.73;99129.41;1782207;78;21101;-64
2021/12/02 06:49:59;;;;;;;11.97;6.37;;;;;;;3.11;57.76;99128.83;1783444;78;21140;-66
2021/12/02 06:52:27;;;;;;;11.20;6.12;;;;;;;3.12;57.81;99136.97;1780838;78;21077;-62
2021/12/02 06:54:55;;;;;;;12.15;5.67;;;;;;;3.13;57.87;99126.95;1782215;78;21066;-57
2021/12/02 06:57:22;;;;;;;9.65;5.35;;;;;;;3.17;57.70;99126.27;1782641;78;21881;-59
2021/12/02 06:59:49;;;;;;;10.05;6.08;;;;;;;3.18;57.70;99122.73;1790541;78;21061;-58
2021/12/02 07:02:15;;;;;;;10.68;5.80;;;;;;;3.18;57.74;99116.69;1786233;78;21268;-63
2021/12/02 07:04:41;;;;;;;11.57;6.62;;;;;;;3.18;57.71;99111.48;1786364;78;21077;-59
2021/12/02 07:07:08;;;;;;;10.35;5.70;;;;;;;3.17;57.87;99114.56;1743029;79;21448;-59
2021/12/02 07:09:34;;;;;;;11.03;6.35;;;;;;;3.19;57.99;99115.76;1786047;78;21123;-59
2021/12/02 07:12:00;;;;;;;12.68;6.55;;;;;;;3.21;57.93;99121.67;1783164;78;21090;-63
2021/12/02 07:14:28;;;;;;;16.27;6.28;;;;;;;3.21;58.00;99125.58;1801777;78;21065;-64
2021/12/02 07:16:57;;;;;;;12.88;7.40;;;;;;;3.21;58.02;99123.83;1796394;78;21501;-65
2021/12/02 07:19:25;;;;;;;12.03;6.87;;;;;;;3.23;58.02;99114.59;1784722;78;21125;-65
2021/12/02 07:21:51;;;;;;;14.95;7.95;;;;;;;3.25;58.09;99106.24;1751868;80;21176;-64
2021/12/02 07:24:18;;;;;;;15.25;9.05;;;;;;;3.27;58.04;99118.66;1769075;79;21083;-65
2021/12/02 07:26:46;;;;;;;15.90;10.25;;;;;;;3.28;58.22;99119.03;1801785;77;21057;-63
2021/12/02 07:29:15;;;;;;;13.93;8.85;;;;;;;3.30;58.21;99121.05;1775229;78;22361;-63
2021/12/02 07:31:42;;;;;;;15.40;8.13;;;;;;;3.30;58.21;99123.65;1761778;79;21343;-65
2021/12/02 07:34:10;;;;;;;12.47;7.55;;;;;;;3.31;58.21;99110.98;1783692;78;21494;-68
2021/12/02 07:36:37;;;;;;;12.07;6.92;;;;;;;3.33;58.32;99116.45;1806271;77;21078;-62
2021/12/02 07:39:09;;;;;;;10.43;6.33;;;;;;;3.38;58.39;99123.95;1780576;78;21050;-60
2021/12/02 07:41:38;;;;;;;11.35;6.42;;;;;;;3.40;58.26;99123.36;1785197;79;21340;-65
2021/12/02 07:44:06;;;;;;;10.65;6.03;;;;;;;3.43;58.30;99116.65;1785873;78;21076;-61
2021/12/02 07:46:32;;;;;;;11.78;6.00;;;;;;;3.47;58.43;99118.08;1774620;77;21091;-60
2021/12/02 07:48:59;;;;;;;8.98;5.45;;;;;;;3.51;58.45;99121.28;1778915;79;21101;-59
2021/12/02 07:51:30;;;;;;;10.30;5.75;;;;;;;3.57;58.30;99113.54;1782231;79;21078;-61
2021/12/02 07:53:58;;;;;;;12.65;6.85;;;;;;;3.61;58.12;99117.09;1776606;80;21057;-60
2021/12/02 07:56:24;;;;;;;14.98;6.70;;;;;;;3.64;58.18;99121.25;1777125;80;20975;-61
2021/12/02 07:58:51;;;;;;;11.53;6.65;;;;;;;3.66;58.27;99110.27;1769495;78;21283;-61
2021/12/02 08:01:18;;;;;;;16.12;7.35;;;;;;;3.67;58.27;99111.94;1781171;78;20995;-60
2021/12/02 08:03:45;;;;;;;12.70;6.37;;;;;;;3.67;58.25;99106.25;1747791;79;21066;-61
2021/12/02 08:06:12;;;;;;;15.65;7.95;;;;;;;3.68;58.46;99105.33;1772718;79;21035;-62
2021/12/02 08:08:39;;;;;;;14.03;8.43;;;;;;;3.69;58.30;99101.77;1776086;79;21057;-62
2021/12/02 08:11:06;;;;;;;18.50;9.53;;;;;;;3.71;58.43;99111.58;1765855;79;22277;-62
2021/12/02 08:13:34;;;;;;;16.32;9.90;;;;;;;3.74;58.42;99109.25;1759562;79;21027;-63
2021/12/02 08:16:02;;;;;;;14.07;9.55;;;;;;;3.74;58.52;99106.64;1759594;79;21065;-64
2021/12/02 08:18:29;;;;;;;16.02;9.40;;;;;;;3.76;58.56;99113.04;1754631;79;21078;-61
2021/12/02 08:20:55;;;;;;;17.17;8.83;;;;;;;3.79;58.62;99120.62;1762132;79;21066;-64
2021/12/02 08:23:22;;;;;;;16.65;9.23;;;;;;;3.83;58.70;99124.21;1760157;79;21133;-64
2021/12/02 08:25:48;;;;;;;13.13;7.95;;;;;;;3.89;58.70;99128.12;1754925;79;21339;-63
2021/12/02 08:28:15;;;;;;;10.72;5.37;;;;;;;3.95;58.57;99130.75;1758785;79;21061;-61
2021/12/02 08:30:41;;;;;;;11.15;5.25;;;;;;;3.97;58.55;99127.55;1754550;80;21110;-64
2021/12/02 08:33:09;;;;;;;8.38;4.78;;;;;;;3.97;58.47;99111.48;1733918;81;21132;-64
2021/12/02 08:35:35;;;;;;;8.60;4.60;;;;;;;4.02;58.56;99125.00;1760360;79;21115;-65
2021/12/02 08:38:10;;;;;;;9.20;4.95;;;;;;;4.03;58.58;99118.83;1751125;80;21545;-63
2021/12/02 08:40:36;;;;;;;7.83;4.20;;;;;;;4.05;58.71;99126.53;1750983;80;21667;-61
2021/12/02 08:43:08;;;;;;;10.28;4.62;;;;;;;4.06;58.70;99106.08;1734696;81;21047;-62
2021/12/02 08:45:36;;;;;;;8.68;4.20;;;;;;;4.10;58.67;99111.40;1788761;79;21040;-63
2021/12/02 08:48:03;;;;;;;8.95;4.92;;;;;;;4.11;58.84;99106.56;1787737;79;21064;-62
2021/12/02 08:50:30;;;;;;;7.05;3.70;;;;;;;4.12;58.95;99106.94;1729486;81;21055;-60
2021/12/02 08:52:57;;;;;;;8.60;4.00;;;;;;;4.15;58.97;99111.06;1723385;80;21002;-62
2021/12/02 08:55:24;;;;;;;10.30;4.37;;;;;;;4.16;59.09;99110.95;1777965;79;21062;-65
2021/12/02 08:57:51;;;;;;;7.67;3.85;;;;;;;4.21;59.20;99110.14;1768207;79;21450;-62
2021/12/02 09:00:21;;;;;;;13.05;4.55;;;;;;;4.25;59.30;99106.39;1770077;79;21053;-60
2021/12/02 09:02:47;;;;;;;8.63;4.05;;;;;;;4.33;59.46;99117.52;1771117;79;21467;-60
2021/12/02 09:05:14;;;;;;;9.03;4.30;;;;;;;4.46;59.38;99116.14;1774417;79;21097;-64
2021/12/02 09:07:41;;;;;;;7.22;4.17;;;;;;;4.54;59.46;99106.43;1774858;79;21105;-62
2021/12/02 09:10:09;;;;;;;9.33;4.58;;;;;;;4.55;59.70;99105.02;1764636;80;21057;-61
2021/12/02 09:12:35;;;;;;;8.93;4.42;;;;;;;4.57;59.76;99109.66;1744399;79;21279;-59
2021/12/02 09:15:03;;;;;;;8.98;4.47;;;;;;;4.57;59.87;99103.15;1793995;77;21682;-59
2021/12/02 09:17:30;;;;;;;8.35;4.17;;;;;;;4.55;60.13;99103.71;1778490;78;21081;-59
2021/12/02 09:19:57;;;;;;;9.90;4.15;;;;;;;4.55;60.11;99103.71;1788314;78;21667;-60
2021/12/02 09:22:23;;;;;;;8.93;4.62;;;;;;;4.51;60.13;99095.78;1790565;78;21089;-62
2021/12/02 09:24:49;;;;;;;13.55;4.83;;;;;;;4.48;60.29;99105.12;1785610;78;21419;-62
2021/12/02 09:27:16;;;;;;;9.25;4.12;;;;;;;4.45;60.51;99094.94;1780162;78;21510;-67
2021/12/02 09:29:42;;;;;;;8.73;4.22;;;;;;;4.48;60.47;99090.80;1805979;77;21086;-61
2021/12/02 09:32:09;;;;;;;8.10;4.37;;;;;;;4.47;60.58;99086.52;1773664;78;21058;-62
2021/12/02 09:34:36;;;;;;;8.63;4.72;;;;;;;4.45;60.81;99082.77;1767306;79;21097;-63
2021/12/02 09:37:02;;;;;;;9.55;4.60;;;;;;;4.50;60.68;99082.39;1787963;79;21427;-61
2021/12/02 09:39:31;;;;;;;9.00;4.00;;;;;;;4.62;60.64;99073.66;1793632;78;21048;-60
2021/12/02 09:41:57;;;;;;;10.38;4.70;;;;;;;4.72;60.33;99077.67;1781890;78;21105;-62
2021/12/02 09:44:24;;;;;;;9.18;4.22;;;;;;;4.75;60.11;99077.92;1800588;77;21101;-63
2021/12/02 09:46:50;;;;;;;8.48;4.47;;;;;;;4.74;60.35;99073.65;1803062;78;21560;-60
2021/12/02 09:49:17;;;;;;;7.30;4.08;;;;;;;4.74;60.23;99063.23;1779193;79;21107;-60
2021/12/02 09:51:57;;;;;;;9.65;4.42;;;;;;;4.73;60.43;99073.31;1779608;79;21720;-61
2021/12/02 09:54:18;;;;;;;8.08;5.00;;;;;;;4.72;60.27;99063.83;1742179;80;21006;-64
2021/12/02 09:56:48;;;;;;;9.88;4.90;;;;;;;4.70;60.46;99067.84;1777418;78;21066;-63
2021/12/02 09:59:29;;;;;;;9.70;4.78;;;;;;;4.68;60.45;99055.42;1758934;79;21097;-61
2021/12/02 10:02:07;;;;;;;7.65;4.90;;;;;;;4.67;60.49;99060.27;1784318;78;21065;-66
2021/12/02 10:04:39;;;;;;;7.75;4.60;;;;;;;4.63;60.48;99059.67;1757355;79;21470;-64
2021/12/02 10:07:18;;;;;;;7.65;4.78;;;;;;;4.61;60.74;99056.36;1782124;78;21025;-66
2021/12/02 10:09:56;;;;;;;10.68;4.83;;;;;;;4.61;60.74;99049.03;1762537;78;21085;-67
2021/12/02 10:12:22;;;;;;;8.73;4.47;;;;;;;4.61;60.84;99041.21;1780965;78;21551;-65
2021/12/02 10:14:57;;;;;;;9.28;4.62;;;;;;;4.64;60.77;99045.71;1786891;78;22390;-65
2021/12/02 10:20:31;;;;;;;9.23;5.37;;;;;;;4.82;60.63;99053.89;1752149;78;21556;-61
2021/12/02 10:23:20;;;;;;;11.03;4.47;;;;;;;4.83;60.63;99053.41;1785832;78;21571;-69
2021/12/02 10:25:58;;;;;;;8.78;4.83;;;;;;;4.83;60.52;99043.80;1760506;78;21121;-67
2021/12/02 10:28:25;;;;;;;8.95;4.83;;;;;;;4.82;60.56;99046.53;1749575;79;21117;-66
2021/12/02 10:30:59;;;;;;;7.50;3.92;;;;;;;4.82;60.52;99052.59;1759507;79;21059;-67
2021/12/02 10:33:40;;;;;;;8.15;4.65;;;;;;;4.82;60.47;99053.05;1778290;78;21119;-62
2021/12/02 10:36:10;;;;;;;7.55;4.30;;;;;;;4.82;60.56;99049.13;1757558;79;21156;-65
2021/12/02 10:38:43;;;;;;;8.78;4.40;;;;;;;4.82;60.53;99047.83;1746645;79;21070;-65
2021/12/02 10:41:20;;;;;;;10.40;4.80;;;;;;;4.79;60.59;99044.16;1795011;77;21062;-60
2021/12/02 10:44:17;;;;;;;9.70;4.87;;;;;;;4.79;60.64;99041.55;1794583;77;21105;-63
2021/12/02 10:47:12;;;;;;;9.68;4.60;;;;;;;4.77;60.70;99052.58;1799383;77;21085;-64
2021/12/02 10:49:45;;;;;;;9.20;5.12;;;;;;;4.76;60.86;99043.11;1748479;80;21007;-61
2021/12/02 10:52:16;;;;;;;7.42;4.17;;;;;;;4.82;60.97;99046.53;1770207;78;21065;-64
2021/12/02 10:54:48;;;;;;;10.85;5.35;;;;;;;4.92;60.71;99038.34;1783246;78;21128;-67
2021/12/02 10:57:18;;;;;;;10.10;4.85;;;;;;;5.00;60.60;99029.94;1775460;78;21597;-64
2021/12/02 10:59:58;;;;;;;9.60;4.87;;;;;;;5.03;60.59;99037.04;1811434;77;21209;-65
2021/12/02 11:02:31;;;;;;;7.62;3.98;;;;;;;5.09;60.51;99034.89;1783446;78;21564;-67
2021/12/02 11:05:01;;;;;;;9.63;4.80;;;;;;;5.14;60.34;99031.45;1770443;80;21031;-68
2021/12/02 11:07:33;;;;;;;7.87;4.85;;;;;;;5.17;60.30;99032.03;1809831;77;21085;-65
2021/12/02 11:10:09;;;;;;;8.03;4.03;;;;;;;5.21;60.24;99028.70;1805604;77;21050;-64
2021/12/02 11:12:38;;;;;;;;;;;;;;;5.23;60.09;99016.39;1776681;79;21044;-66
2021/12/02 11:15:15;;;;;;;9.63;4.60;;;;;;;5.23;60.00;99008.56;1776237;78;20225;-68
2021/12/02 11:17:57;;;;;;;8.18;4.22;;;;;;;5.14;60.15;99006.19;1780791;78;21120;-66
2021/12/02 11:20:38;;;;;;;11.60;5.47;;;;;;;5.13;60.22;99000.64;1777343;78;21129;-64
2021/12/02 11:23:17;;;;;;;10.53;4.83;;;;;;;5.16;60.42;99002.16;1747471;79;21671;-67
2021/12/02 11:26:07;;;;;;;9.60;5.08;;;;;;;5.21;60.46;99015.66;1783658;78;20985;-64
2021/12/02 11:28:36;;;;;;;8.23;4.08;;;;;;;5.25;60.45;99001.93;1764924;79;21549;-68
2021/12/02 11:31:15;;;;;;;10.30;5.42;;;;;;;5.30;60.12;99005.81;1779349;80;21045;-67
2021/12/02 11:33:42;;;;;;;8.88;5.00;;;;;;;5.31;60.08;99012.70;1772276;79;21046;-66
2021/12/02 11:36:20;;;;;;;8.15;4.30;;;;;;;5.38;60.01;99009.94;1776020;79;21063;-65
2021/12/02 11:38:46;;;;;;;10.63;5.25;;;;;;;5.54;59.83;99012.61;1775115;79;21180;-63
2021/12/02 11:41:14;;;;;;;12.23;5.12;;;;;;;5.66;59.65;99012.91;1773670;79;21054;-65
2021/12/02 11:43:40;;;;;;;8.33;4.80;;;;;;;5.72;59.28;99014.21;1752918;79;21039;-66
2021/12/02 11:46:09;;;;;;;10.00;5.40;;;;;;;5.79;59.17;99014.54;1779941;79;21062;-67
2021/12/02 11:48:38;;;;;;;9.53;5.03;;;;;;;5.83;59.14;99006.30;1774239;79;21108;-67
2021/12/02 11:51:11;;;;;;;9.08;4.92;;;;;;;5.89;58.94;99012.82;1751930;79;21050;-64
2021/12/02 11:53:38;;;;;;;11.53;4.90;;;;;;;5.91;58.74;99015.64;1805651;77;21103;-63
2021/12/02 11:56:13;;;;;;;7.83;4.42;;;;;;;5.95;58.73;99004.47;1800569;77;21086;-67
2021/12/02 11:58:40;;;;;;;15.43;5.25;;;;;;;5.99;58.44;99005.91;1789267;78;21128;-65
2021/12/02 12:01:15;;;;;;;10.53;5.25;;;;;;;5.99;58.19;99007.22;1805976;77;20987;-66